createdAt,value
2023-03-04T00:01:30.275Z,24.60
2023-03-04T00:04:32.174Z,27.25
2023-03-04T00:07:33.713Z,32.65
2023-03-04T00:10:35.269Z,26.30
2023-03-04T00:13:37.261Z,26.25
2023-03-04T00:16:38.830Z,32.58
2023-03-04T00:19:40.421Z,37.00
2023-03-04T00:22:42.167Z,27.58
2023-03-04T00:25:43.773Z,30.33
2023-03-04T00:28:45.336Z,25.48
2023-03-04T00:31:47.093Z,23.13
2023-03-04T00:34:48.765Z,30.60
2023-03-04T00:37:50.404Z,30.92
2023-03-04T00:40:52.223Z,25.67
2023-03-04T00:43:53.761Z,25.05
2023-03-04T00:46:55.277Z,22.23
2023-03-04T00:49:57.086Z,20.42
2023-03-04T00:52:58.850Z,27.35
2023-03-04T00:59:17.541Z,33.78
2023-03-04T01:02:19.207Z,25.42
2023-03-04T01:05:21.065Z,29.98
2023-03-04T01:08:22.616Z,36.80
2023-03-04T01:11:24.372Z,29.63
2023-03-04T01:14:26.454Z,21.73
2023-03-04T01:17:28.196Z,23.75
2023-03-04T01:20:29.762Z,26.83
2023-03-04T01:23:31.418Z,29.95
2023-03-04T01:26:33.175Z,33.08
2023-03-04T01:29:34.844Z,35.65
2023-03-04T01:32:36.429Z,29.88
2023-03-04T01:35:38.090Z,31.92
2023-03-04T01:38:39.730Z,36.70
2023-03-04T01:41:41.593Z,23.80
2023-03-04T01:44:44.467Z,29.20
2023-03-04T01:47:49.062Z,34.78
2023-03-04T01:50:50.804Z,32.13
2023-03-04T01:53:54.869Z,25.95
2023-03-04T01:56:58.044Z,30.55
2023-03-04T02:00:23.424Z,31.05
2023-03-04T02:03:25.653Z,34.08
2023-03-04T02:06:27.314Z,27.65
2023-03-04T02:09:31.315Z,33.28
2023-03-04T02:12:33.064Z,29.75
2023-03-04T02:15:34.893Z,26.30
2023-03-04T02:18:36.463Z,32.22
2023-03-04T02:21:38.067Z,31.73
2023-03-04T02:24:46.217Z,33.45
2023-03-04T02:27:47.857Z,27.08
2023-03-04T02:30:49.482Z,25.65
2023-03-04T02:33:52.685Z,25.95
2023-03-04T02:36:55.164Z,35.10
2023-03-04T02:39:56.982Z,34.90
2023-03-04T02:43:00.882Z,28.23
2023-03-04T02:46:02.674Z,32.55
2023-03-04T02:49:04.264Z,29.30
2023-03-04T02:52:06.030Z,31.35
2023-03-04T02:55:08.015Z,23.98
2023-03-04T02:58:10.301Z,41.55
2023-03-04T03:01:11.924Z,32.45
2023-03-04T03:04:14.096Z,27.10
2023-03-04T03:07:15.620Z,32.70
2023-03-04T03:10:17.634Z,33.03
2023-03-04T03:13:19.229Z,35.85
2023-03-04T03:16:20.850Z,33.50
2023-03-04T03:19:22.389Z,28.48
2023-03-04T03:22:24.328Z,24.27
2023-03-04T03:25:25.873Z,28.92
2023-03-04T03:28:27.821Z,35.45
2023-03-04T03:31:29.523Z,21.52
2023-03-04T03:34:31.116Z,28.90
2023-03-04T03:37:32.906Z,20.30
2023-03-04T03:40:34.497Z,28.52
2023-03-04T03:43:36.066Z,28.02
2023-03-04T03:46:37.614Z,32.10
2023-03-04T03:49:39.156Z,28.40
2023-03-04T03:52:40.737Z,37.67
2023-03-04T03:55:42.320Z,24.20
2023-03-04T03:58:43.878Z,27.63
2023-03-04T04:01:45.471Z,26.92
2023-03-04T04:04:47.054Z,25.23
2023-03-04T04:07:48.612Z,26.65
2023-03-04T04:10:50.205Z,28.75
2023-03-04T04:13:51.845Z,26.83
2023-03-04T04:16:53.495Z,24.15
2023-03-04T04:19:55.084Z,24.80
2023-03-04T04:22:56.774Z,32.95
2023-03-04T04:25:58.354Z,16.73
2023-03-04T04:28:59.869Z,20.17
2023-03-04T04:32:01.499Z,25.58
2023-03-04T04:35:03.184Z,26.02
2023-03-04T04:38:06.052Z,21.08
2023-03-04T04:41:40.921Z,21.42
2023-03-04T04:44:42.576Z,31.95
2023-03-04T04:47:44.539Z,28.95
2023-03-04T04:50:46.134Z,23.85
2023-03-04T04:53:48.607Z,23.33
2023-03-04T04:56:50.256Z,28.33
2023-03-04T04:59:51.916Z,16.38
2023-03-04T05:02:53.483Z,26.88
2023-03-04T05:05:55.125Z,21.23
2023-03-04T05:08:57.117Z,21.50
2023-03-04T05:11:58.673Z,21.33
2023-03-04T05:15:00.251Z,25.30
2023-03-04T05:18:01.782Z,21.63
2023-03-04T05:21:03.961Z,21.13
2023-03-04T05:24:06.742Z,20.75
2023-03-04T05:27:08.301Z,34.22
2023-03-04T05:30:10.955Z,19.15
2023-03-04T05:33:13.961Z,35.13
2023-03-04T05:36:15.540Z,20.27
2023-03-04T05:39:17.165Z,16.77
2023-03-04T05:42:18.715Z,21.48
2023-03-04T05:45:20.250Z,15.48
2023-03-04T05:48:22.036Z,24.20
2023-03-04T05:51:24.023Z,24.83
2023-03-04T05:54:25.732Z,21.17
2023-03-04T05:57:27.442Z,21.70
2023-03-04T06:00:29.044Z,19.73
2023-03-04T06:03:30.676Z,20.98
2023-03-04T06:06:32.309Z,17.55
2023-03-04T06:09:34.159Z,15.57
2023-03-04T06:12:35.713Z,21.48
2023-03-04T06:15:38.464Z,14.25
2023-03-04T06:18:40.124Z,17.77
2023-03-04T06:21:41.680Z,27.45
2023-03-04T06:24:43.483Z,18.90
2023-03-04T06:27:45.034Z,21.67
2023-03-04T06:30:46.704Z,23.48
2023-03-04T06:33:48.332Z,22.27
2023-03-04T06:36:50.165Z,19.10
2023-03-04T06:39:51.858Z,15.77
2023-03-04T06:42:53.422Z,20.13
2023-03-04T06:45:55.004Z,19.20
2023-03-04T06:48:56.791Z,16.73
2023-03-04T06:51:58.559Z,21.08
2023-03-04T06:55:00.150Z,23.17
2023-03-04T06:58:01.712Z,15.32
2023-03-04T07:01:13.827Z,23.25
2023-03-04T07:04:15.524Z,21.25
2023-03-04T07:07:17.177Z,21.13
2023-03-04T07:10:19.545Z,21.13
2023-03-04T07:13:21.140Z,20.45
2023-03-04T07:16:23.892Z,12.93
2023-03-04T07:19:25.701Z,27.50
2023-03-04T07:22:27.337Z,18.33
2023-03-04T07:25:29.106Z,18.20
2023-03-04T07:28:30.845Z,20.75
2023-03-04T07:31:34.758Z,21.45
2023-03-04T07:34:36.316Z,20.05
2023-03-04T07:37:37.923Z,18.58
2023-03-04T07:40:39.524Z,22.40
2023-03-04T07:43:41.101Z,19.58
2023-03-04T07:46:42.743Z,20.40
2023-03-04T07:49:44.309Z,16.15
2023-03-04T07:52:48.303Z,17.17
2023-03-04T07:55:49.920Z,12.18
2023-03-04T07:58:53.542Z,12.60
2023-03-04T08:01:55.115Z,21.05
2023-03-04T08:04:56.664Z,23.73
2023-03-04T08:07:58.352Z,15.55
2023-03-04T08:11:00.000Z,16.00
2023-03-04T08:14:01.895Z,13.73
2023-03-04T08:17:03.495Z,16.00
2023-03-04T08:20:05.558Z,13.25
2023-03-04T08:23:07.354Z,13.20
2023-03-04T08:26:12.362Z,19.92
2023-03-04T08:29:21.175Z,15.40
2023-03-04T08:32:23.603Z,12.88
2023-03-04T08:35:25.350Z,12.45
2023-03-04T08:38:27.032Z,11.32
2023-03-04T08:41:29.268Z,18.35
2023-03-04T08:44:30.936Z,18.52
2023-03-04T08:47:32.546Z,14.18
2023-03-04T08:50:34.162Z,19.90
2023-03-04T08:53:36.513Z,14.13
2023-03-04T08:56:38.430Z,14.13
2023-03-04T08:59:39.975Z,17.75
2023-03-04T09:02:41.721Z,15.90
2023-03-04T09:05:45.254Z,20.92
2023-03-04T09:08:47.029Z,17.88
2023-03-04T09:11:48.610Z,20.63
2023-03-04T09:15:04.564Z,15.48
2023-03-04T09:18:11.942Z,11.85
2023-03-04T09:21:13.537Z,18.05
2023-03-04T09:24:15.295Z,19.10
2023-03-04T09:27:16.843Z,14.60
2023-03-04T09:30:18.698Z,20.90
2023-03-04T09:33:20.260Z,13.05
2023-03-04T09:36:22.322Z,21.17
2023-03-04T09:39:23.946Z,18.33
2023-03-04T09:42:34.283Z,12.95
2023-03-04T09:45:47.501Z,15.68
2023-03-04T09:48:54.625Z,13.43
2023-03-04T09:52:25.786Z,17.33
2023-03-04T09:55:42.989Z,21.85
2023-03-04T09:58:59.444Z,15.02
2023-03-04T10:02:10.588Z,19.73
2023-03-04T10:05:18.737Z,15.50
2023-03-04T10:08:36.841Z,16.60
2023-03-04T10:11:46.340Z,13.13
2023-03-04T10:15:06.489Z,14.43
2023-03-04T10:18:36.184Z,13.35
2023-03-04T10:21:49.276Z,14.40
2023-03-04T10:24:55.603Z,13.80
2023-03-04T10:28:23.864Z,12.48
2023-03-04T10:31:37.170Z,20.05
2023-03-04T10:34:38.821Z,15.43
2023-03-04T10:37:48.908Z,16.13
2023-03-04T10:40:50.597Z,15.25
2023-03-04T10:44:13.068Z,15.23
2023-03-04T10:47:16.573Z,13.13
2023-03-04T10:50:24.977Z,8.45
2023-03-04T10:53:39.389Z,7.55
2023-03-04T10:56:46.118Z,12.25
2023-03-04T10:59:54.858Z,12.07
2023-03-04T11:03:30.232Z,7.63
2023-03-04T11:06:32.493Z,13.52
2023-03-04T11:09:34.011Z,9.32
2023-03-04T11:12:35.814Z,9.00
2023-03-04T11:16:04.155Z,8.15
2023-03-04T11:19:16.845Z,9.98
2023-03-04T11:22:21.827Z,11.60
2023-03-04T11:25:36.202Z,9.60
2023-03-04T11:28:59.677Z,9.55
2023-03-04T11:32:01.363Z,7.07
2023-03-04T11:35:34.561Z,16.55
2023-03-04T11:38:48.974Z,7.65
2023-03-04T11:42:01.429Z,7.53
2023-03-04T11:45:04.672Z,6.00
2023-03-04T11:48:13.163Z,8.57
2023-03-04T11:51:33.793Z,8.90
2023-03-04T11:55:04.811Z,10.00
2023-03-04T11:58:25.136Z,10.30
2023-03-04T12:01:44.823Z,13.13
2023-03-04T12:05:04.286Z,7.72
2023-03-04T12:08:24.453Z,7.30
2023-03-04T12:11:33.170Z,4.75
2023-03-04T12:14:41.305Z,8.10
2023-03-04T12:17:56.671Z,14.32
2023-03-04T12:21:30.885Z,13.13
2023-03-04T12:25:12.516Z,13.10
2023-03-04T12:28:52.126Z,8.43
2023-03-04T12:32:11.406Z,10.77
2023-03-04T12:35:47.253Z,9.20
2023-03-04T12:38:51.622Z,7.07
2023-03-04T12:42:02.100Z,14.05
2023-03-04T12:45:32.435Z,7.57
2023-03-04T12:48:39.097Z,9.48
2023-03-04T12:51:53.108Z,8.88
2023-03-04T12:55:02.659Z,10.13
2023-03-04T12:58:06.044Z,14.07
2023-03-04T13:01:42.702Z,15.75
2023-03-04T13:04:59.409Z,8.73
2023-03-04T13:08:42.800Z,9.27
2023-03-04T13:11:52.479Z,6.97
2023-03-04T13:15:09.245Z,7.53
2023-03-04T13:18:37.047Z,12.43
2023-03-04T13:21:49.390Z,12.73
2023-03-04T13:24:51.145Z,8.65
2023-03-04T13:28:18.579Z,4.80
2023-03-04T13:31:24.108Z,7.43
2023-03-04T13:34:46.141Z,5.38
2023-03-04T13:37:58.783Z,9.65
2023-03-04T13:41:19.009Z,6.13
2023-03-04T13:44:34.590Z,4.47
2023-03-04T13:47:43.771Z,5.55
2023-03-04T13:50:48.097Z,11.35
2023-03-04T13:53:54.559Z,11.27
2023-03-04T13:57:03.693Z,8.70
2023-03-04T14:00:11.357Z,8.05
2023-03-04T14:03:14.701Z,12.20
2023-03-04T14:06:25.506Z,6.70
2023-03-04T14:12:33.200Z,7.80
2023-03-04T14:15:35.303Z,11.73
2023-03-04T14:18:38.071Z,6.70
2023-03-04T14:21:46.329Z,8.70
2023-03-04T14:25:03.482Z,7.38
2023-03-04T14:28:16.734Z,7.47
2023-03-04T14:31:24.299Z,7.68
2023-03-04T14:34:35.394Z,7.22
2023-03-04T14:37:44.612Z,7.68
2023-03-04T14:40:51.622Z,10.20
2023-03-04T14:44:23.670Z,12.65
2023-03-04T14:47:39.140Z,9.32
2023-03-04T14:50:52.144Z,6.60
2023-03-04T14:53:55.842Z,10.88
2023-03-04T14:56:59.445Z,10.35
2023-03-04T15:00:19.783Z,9.63
2023-03-04T15:03:26.256Z,8.63
2023-03-04T15:06:31.241Z,6.80
2023-03-04T15:09:32.958Z,13.52
2023-03-04T15:12:37.689Z,6.47
2023-03-04T15:15:41.926Z,11.63
2023-03-04T15:19:05.811Z,13.35
2023-03-04T15:22:08.001Z,10.43
2023-03-04T15:25:15.180Z,9.07
2023-03-04T15:28:20.849Z,12.02
2023-03-04T15:31:25.804Z,14.73
2023-03-04T15:34:27.590Z,11.18
2023-03-04T15:37:29.749Z,11.68
2023-03-04T15:40:38.908Z,12.68
2023-03-04T15:43:40.499Z,13.30
2023-03-04T15:46:42.165Z,17.70
2023-03-04T15:49:47.257Z,19.95
2023-03-04T15:52:51.101Z,14.13
2023-03-04T15:55:53.285Z,17.10
2023-03-04T15:59:19.416Z,10.68
2023-03-04T16:02:23.762Z,13.65
2023-03-04T16:05:25.403Z,18.50
2023-03-04T16:08:27.192Z,15.68
2023-03-04T16:11:32.490Z,13.45
2023-03-04T16:14:34.106Z,20.08
2023-03-04T16:17:35.751Z,17.25
2023-03-04T16:20:38.920Z,28.02
2023-03-04T16:23:43.224Z,16.27
2023-03-04T16:26:45.067Z,17.95
2023-03-04T16:29:46.704Z,14.02
2023-03-04T16:32:48.314Z,18.98
2023-03-04T16:35:51.481Z,10.38
2023-03-04T16:38:57.634Z,17.42
2023-03-04T16:41:59.349Z,11.77
2023-03-04T16:45:00.989Z,8.85
2023-03-04T16:48:02.552Z,9.73
2023-03-04T16:51:12.136Z,9.20
2023-03-04T16:54:30.220Z,13.55
2023-03-04T16:57:31.833Z,15.98
2023-03-04T17:00:33.833Z,11.25
2023-03-04T17:03:35.419Z,13.05
2023-03-04T17:06:40.115Z,11.48
2023-03-04T17:09:41.875Z,13.88
2023-03-04T17:12:43.885Z,13.85
2023-03-04T17:15:46.780Z,15.95
2023-03-04T17:18:48.636Z,12.90
2023-03-04T17:21:50.186Z,12.95
2023-03-04T17:24:51.737Z,13.35
2023-03-04T17:27:53.272Z,11.32
2023-03-04T17:30:55.083Z,16.45
2023-03-04T17:33:56.713Z,13.25
2023-03-04T17:36:59.813Z,15.88
2023-03-04T17:40:13.932Z,9.25
2023-03-04T17:43:15.538Z,14.73
2023-03-04T17:46:20.837Z,13.15
2023-03-04T17:49:22.551Z,14.93
2023-03-04T17:52:24.091Z,14.55
2023-03-04T17:55:25.672Z,12.48
2023-03-04T17:58:28.952Z,18.55
2023-03-04T18:01:30.494Z,15.93
2023-03-04T18:04:32.421Z,10.88
2023-03-04T18:07:34.186Z,15.27
2023-03-04T18:10:35.761Z,15.75
2023-03-04T18:13:38.273Z,16.98
2023-03-04T18:16:40.380Z,9.70
2023-03-04T18:19:42.057Z,19.23
2023-03-04T18:22:44.613Z,13.95
2023-03-04T18:25:46.207Z,19.92
2023-03-04T18:28:47.784Z,13.65
2023-03-04T18:31:49.429Z,9.68
2023-03-04T18:34:51.104Z,16.38
2023-03-04T18:37:52.654Z,14.85
2023-03-04T18:41:01.942Z,16.33
2023-03-04T18:44:05.076Z,20.27
2023-03-04T18:47:06.877Z,18.08
2023-03-04T18:50:09.845Z,21.65
2023-03-04T18:53:11.541Z,15.20
2023-03-04T18:56:29.807Z,12.52
2023-03-04T18:59:36.949Z,17.75
2023-03-04T19:02:49.572Z,13.60
2023-03-04T19:05:51.127Z,20.63
2023-03-04T19:08:55.119Z,17.13
2023-03-04T19:11:56.717Z,16.88
2023-03-04T19:14:58.778Z,19.42
2023-03-04T19:18:00.429Z,12.23
2023-03-04T19:21:04.181Z,11.38
2023-03-04T19:24:07.216Z,16.98
2023-03-04T19:27:08.780Z,17.02
2023-03-04T19:30:10.875Z,12.95
2023-03-04T19:33:12.481Z,18.30
2023-03-04T19:36:14.095Z,15.18
2023-03-04T19:39:18.284Z,12.30
2023-03-04T19:42:19.832Z,20.25
2023-03-04T19:45:21.424Z,13.77
2023-03-04T19:48:24.133Z,17.70
2023-03-04T19:51:26.818Z,11.73
2023-03-04T19:54:30.936Z,13.45
2023-03-04T19:57:32.954Z,14.93
2023-03-04T20:00:37.031Z,12.98
2023-03-04T20:03:39.289Z,19.02
2023-03-04T20:06:43.665Z,22.90
2023-03-04T20:09:45.511Z,21.90
2023-03-04T20:12:47.120Z,23.17
2023-03-04T20:15:48.684Z,21.95
2023-03-04T20:18:51.971Z,19.65
2023-03-04T20:21:53.532Z,17.73
2023-03-04T20:24:55.145Z,20.73
2023-03-04T20:27:57.388Z,17.33
2023-03-04T20:31:15.472Z,11.38
2023-03-04T20:34:17.202Z,15.50
2023-03-04T20:37:18.839Z,21.20
2023-03-04T20:40:20.616Z,18.90
2023-03-04T20:43:24.004Z,14.82
2023-03-04T20:46:27.122Z,15.30
2023-03-04T20:49:29.826Z,17.60
2023-03-04T20:52:31.884Z,18.77
2023-03-04T20:55:33.429Z,19.08
2023-03-04T20:58:38.453Z,20.48
2023-03-04T21:01:42.703Z,23.80
2023-03-04T21:04:44.617Z,14.15
2023-03-04T21:07:49.345Z,15.98
2023-03-04T21:10:51.079Z,17.48
2023-03-04T21:13:56.079Z,18.15
2023-03-04T21:17:00.486Z,14.82
2023-03-04T21:20:02.089Z,14.82
2023-03-04T21:23:03.879Z,22.13
2023-03-04T21:26:08.693Z,22.20
2023-03-04T21:29:20.656Z,17.92
2023-03-04T21:32:29.215Z,19.90
2023-03-04T21:35:33.663Z,15.20
2023-03-04T21:38:35.225Z,15.35
2023-03-04T21:41:37.034Z,10.90
2023-03-04T21:44:49.308Z,13.52
2023-03-04T21:47:55.039Z,13.65
2023-03-04T21:51:02.002Z,14.43
2023-03-04T21:54:04.940Z,15.43
2023-03-04T21:57:06.487Z,20.98
2023-03-04T22:00:11.951Z,19.60
2023-03-04T22:03:13.555Z,14.52
2023-03-04T22:06:24.245Z,16.55
2023-03-04T22:09:31.932Z,16.20
2023-03-04T22:12:33.770Z,20.70
2023-03-04T22:15:40.312Z,16.05
2023-03-04T22:18:46.643Z,12.32
2023-03-04T22:21:48.238Z,15.48
2023-03-04T22:24:49.837Z,17.40
2023-03-04T22:27:51.405Z,17.50
2023-03-04T22:30:53.104Z,18.73
2023-03-04T22:33:54.709Z,15.50
2023-03-04T22:36:56.294Z,18.00
2023-03-04T22:39:57.957Z,15.48
2023-03-04T22:43:01.877Z,16.17
2023-03-04T22:46:15.086Z,21.58
2023-03-04T22:49:16.895Z,11.35
2023-03-04T22:52:23.327Z,20.65
2023-03-04T22:55:27.913Z,17.90
2023-03-04T22:58:43.652Z,19.10
2023-03-04T23:01:45.284Z,15.50
2023-03-04T23:04:46.841Z,17.38
2023-03-04T23:07:50.644Z,19.17
2023-03-04T23:10:52.277Z,22.98
2023-03-04T23:13:55.023Z,19.13
2023-03-04T23:16:56.794Z,23.38
2023-03-04T23:19:58.395Z,20.10
2023-03-04T23:23:00.018Z,22.75
2023-03-04T23:26:01.558Z,20.63
2023-03-04T23:29:04.922Z,21.90
2023-03-04T23:32:06.781Z,15.38
2023-03-04T23:35:08.690Z,16.70
2023-03-04T23:38:10.419Z,16.55
2023-03-04T23:41:21.149Z,25.98
2023-03-04T23:44:23.683Z,19.00
2023-03-04T23:47:25.361Z,24.70
2023-03-04T23:50:27.017Z,26.08
2023-03-04T23:53:28.699Z,18.13
2023-03-04T23:56:31.173Z,19.70
2023-03-04T23:59:33.165Z,23.83
